createdAt,value
2019-04-27T00:02:23.049Z,81.10
2019-04-27T00:05:10.509Z,81.87
2019-04-27T00:07:51.474Z,82.74
2019-04-27T00:10:30.214Z,82.23
2019-04-27T00:13:01.183Z,82.84
2019-04-27T00:15:49.077Z,83.31
2019-04-27T00:18:29.159Z,83.08
2019-04-27T00:21:06.089Z,84.15
2019-04-27T00:23:34.003Z,84.43
2019-04-27T00:26:00.700Z,83.98
2019-04-27T00:28:27.224Z,83.67
2019-04-27T00:30:53.834Z,83.69
2019-04-27T00:33:20.475Z,84.37
2019-04-27T00:35:53.904Z,83.13
2019-04-27T00:38:41.305Z,83.06
2019-04-27T00:41:10.167Z,82.13
2019-04-27T00:43:36.842Z,83.47
2019-04-27T00:46:04.076Z,83.65
2019-04-27T00:48:30.899Z,83.54
2019-04-27T00:50:57.788Z,84.28
2019-04-27T00:53:24.347Z,82.18
2019-04-27T00:56:15.287Z,82.99
2019-04-27T00:59:00.286Z,83.74
2019-04-27T01:01:33.405Z,83.58
2019-04-27T01:04:23.688Z,83.23
2019-04-27T01:06:50.351Z,82.97
2019-04-27T01:09:17.397Z,82.49
2019-04-27T01:11:43.916Z,82.68
2019-04-27T01:14:10.452Z,82.89
2019-04-27T01:16:36.989Z,82.08
2019-04-27T01:19:03.710Z,82.52
2019-04-27T01:21:30.355Z,82.44
2019-04-27T01:23:58.784Z,83.49
2019-04-27T01:26:52.320Z,83.50
2019-04-27T01:29:19.996Z,82.67
2019-04-27T01:31:46.523Z,80.64
2019-04-27T01:34:13.299Z,81.44
2019-04-27T01:36:40.040Z,82.44
2019-04-27T01:39:10.638Z,82.79
2019-04-27T01:41:39.012Z,82.41
2019-04-27T01:44:05.617Z,82.26
2019-04-27T01:46:32.144Z,82.21
2019-04-27T01:48:59.132Z,82.28
2019-04-27T01:51:25.873Z,81.80
2019-04-27T01:53:52.504Z,82.54
2019-04-27T01:56:19.584Z,83.11
2019-04-27T01:58:46.169Z,83.36
2019-04-27T02:01:34.344Z,83.89
2019-04-27T02:04:19.211Z,83.45
2019-04-27T02:06:48.753Z,82.33
2019-04-27T02:09:18.781Z,81.11
2019-04-27T02:11:45.483Z,81.16
2019-04-27T02:14:12.106Z,81.75
2019-04-27T02:16:39.226Z,82.41
2019-04-27T02:19:05.872Z,83.67
2019-04-27T02:21:32.535Z,82.56
2019-04-27T02:23:59.819Z,82.28
2019-04-27T02:26:26.582Z,82.62
2019-04-27T02:29:11.244Z,82.78
2019-04-27T02:31:46.039Z,83.07
2019-04-27T02:34:15.322Z,83.36
2019-04-27T02:36:41.838Z,83.31
2019-04-27T02:39:09.511Z,83.56
2019-04-27T02:41:36.662Z,83.21
2019-04-27T02:44:17.207Z,82.92
2019-04-27T02:46:43.857Z,82.84
2019-04-27T02:49:10.823Z,83.35
2019-04-27T02:51:59.872Z,84.28
2019-04-27T02:54:26.526Z,83.82
2019-04-27T02:56:53.178Z,84.42
2019-04-27T02:59:20.044Z,82.89
2019-04-27T03:01:53.646Z,84.45
2019-04-27T03:04:20.480Z,84.30
2019-04-27T03:06:47.145Z,84.35
2019-04-27T03:09:13.809Z,83.35
2019-04-27T03:11:40.427Z,84.23
2019-04-27T03:14:32.564Z,84.60
2019-04-27T03:17:22.718Z,84.73
2019-04-27T03:19:59.545Z,84.91
2019-04-27T03:22:31.030Z,84.36
2019-04-27T03:25:20.232Z,84.65
2019-04-27T03:27:50.293Z,83.67
2019-04-27T03:30:16.703Z,83.45
2019-04-27T03:32:43.774Z,83.19
2019-04-27T03:35:12.723Z,84.13
2019-04-27T03:37:40.453Z,83.22
2019-04-27T03:40:10.089Z,83.04
2019-04-27T03:42:40.309Z,83.31
2019-04-27T03:45:10.444Z,83.84
2019-04-27T03:47:36.120Z,83.53
2019-04-27T03:50:03.638Z,84.15
2019-04-27T03:52:39.744Z,84.13
2019-04-27T03:55:19.813Z,83.92
2019-04-27T03:57:52.713Z,84.33
2019-04-27T04:00:21.711Z,83.63
2019-04-27T04:02:50.216Z,83.99
2019-04-27T04:05:16.905Z,84.47
2019-04-27T04:07:43.650Z,84.61
2019-04-27T04:10:10.940Z,84.18
2019-04-27T04:12:56.022Z,83.10
2019-04-27T04:15:29.793Z,83.76
2019-04-27T04:17:56.493Z,83.44
2019-04-27T04:20:23.224Z,83.99
2019-04-27T04:22:51.486Z,84.03
2019-04-27T04:25:20.002Z,83.18
2019-04-27T04:27:46.621Z,83.76
2019-04-27T04:30:13.260Z,84.51
2019-04-27T04:32:39.893Z,84.32
2019-04-27T04:35:16.542Z,83.66
2019-04-27T04:37:43.156Z,83.22
2019-04-27T04:40:09.903Z,82.64
2019-04-27T04:42:42.511Z,82.95
2019-04-27T04:45:27.342Z,83.20
2019-04-27T04:47:59.484Z,83.74
2019-04-27T04:50:25.593Z,83.77
2019-04-27T04:52:52.251Z,83.17
2019-04-27T04:55:20.365Z,83.44
2019-04-27T04:57:49.305Z,83.15
2019-04-27T05:00:16.173Z,83.49
2019-04-27T05:02:42.696Z,83.70
2019-04-27T05:05:09.524Z,84.57
2019-04-27T05:07:36.072Z,84.62
2019-04-27T05:10:03.657Z,84.59
2019-04-27T05:12:30.279Z,84.67
2019-04-27T05:14:56.911Z,84.62
2019-04-27T05:17:23.613Z,84.49
2019-04-27T05:19:50.970Z,82.72
2019-04-27T05:22:19.407Z,83.21
2019-04-27T05:24:49.387Z,83.49
2019-04-27T05:27:15.863Z,83.24
2019-04-27T05:29:42.516Z,83.52
2019-04-27T05:32:11.813Z,83.58
2019-04-27T05:34:39.443Z,83.81
2019-04-27T05:37:06.109Z,83.23
2019-04-27T05:39:32.730Z,83.27
2019-04-27T05:41:59.777Z,83.91
2019-04-27T05:44:52.553Z,82.63
2019-04-27T05:47:43.348Z,82.68
2019-04-27T05:50:18.375Z,82.88
2019-04-27T05:52:44.007Z,82.88
2019-04-27T05:55:10.639Z,82.63
2019-04-27T05:57:39.014Z,82.88
2019-04-27T06:00:06.560Z,82.71
2019-04-27T06:02:33.237Z,82.68
2019-04-27T06:05:00.186Z,83.05
2019-04-27T06:07:27.102Z,83.04
2019-04-27T06:09:53.672Z,82.90
2019-04-27T06:12:20.441Z,83.66
2019-04-27T06:14:46.981Z,83.71
2019-04-27T06:17:13.789Z,83.27
2019-04-27T06:19:40.375Z,82.35
2019-04-27T06:22:07.025Z,83.75
2019-04-27T06:24:33.743Z,84.03
2019-04-27T06:27:00.326Z,82.89
2019-04-27T06:29:27.018Z,82.70
2019-04-27T06:31:53.553Z,82.51
2019-04-27T06:34:20.244Z,82.87
2019-04-27T06:36:48.594Z,81.70
2019-04-27T06:39:15.331Z,81.47
2019-04-27T06:41:41.904Z,81.09
2019-04-27T06:44:11.028Z,81.55
2019-04-27T06:46:38.531Z,81.75
2019-04-27T06:49:05.317Z,81.97
2019-04-27T06:51:32.048Z,81.74
2019-04-27T06:53:59.475Z,82.25
2019-04-27T06:56:26.292Z,82.14
2019-04-27T07:02:21.443Z,81.36
2019-04-27T07:04:49.021Z,81.96
2019-04-27T07:07:15.722Z,82.37
2019-04-27T07:09:42.255Z,80.73
2019-04-27T07:12:09.055Z,81.04
2019-04-27T07:14:35.580Z,81.02
2019-04-27T07:17:02.701Z,81.24
2019-04-27T07:19:29.382Z,80.17
2019-04-27T07:21:56.154Z,79.60
2019-04-27T07:24:23.047Z,79.87
2019-04-27T07:26:49.916Z,79.32
2019-04-27T07:29:16.685Z,79.71
2019-04-27T07:31:43.202Z,78.82
2019-04-27T07:34:09.924Z,79.11
2019-04-27T07:36:36.618Z,79.07
2019-04-27T07:39:05.494Z,79.09
2019-04-27T07:41:32.340Z,79.44
2019-04-27T07:44:31.929Z,78.50
2019-04-27T07:47:16.180Z,78.55
2019-04-27T07:49:42.870Z,77.89
2019-04-27T07:52:09.732Z,78.01
2019-04-27T07:54:38.475Z,76.28
2019-04-27T07:57:05.658Z,76.36
2019-04-27T07:59:33.624Z,76.38
2019-04-27T08:02:00.298Z,76.30
2019-04-27T08:04:28.435Z,76.06
2019-04-27T08:06:55.408Z,77.02
2019-04-27T08:09:22.279Z,77.13
2019-04-27T08:11:49.168Z,76.97
2019-04-27T08:14:15.694Z,76.52
2019-04-27T08:16:42.547Z,76.60
2019-04-27T08:19:09.879Z,76.79
2019-04-27T08:21:43.364Z,76.73
2019-04-27T08:24:06.231Z,76.79
2019-04-27T08:26:49.967Z,76.65
2019-04-27T08:29:34.831Z,76.94
2019-04-27T08:32:09.695Z,77.21
2019-04-27T08:34:37.351Z,77.20
2019-04-27T08:37:08.741Z,75.73
2019-04-27T08:39:35.846Z,76.27
2019-04-27T08:42:04.073Z,75.45
2019-04-27T08:44:31.758Z,76.07
2019-04-27T08:46:59.768Z,75.59
2019-04-27T08:49:26.736Z,75.38
2019-04-27T08:51:59.193Z,74.31
2019-04-27T08:54:21.922Z,74.91
2019-04-27T08:56:49.590Z,74.69
2019-04-27T08:59:16.583Z,74.20
2019-04-27T09:01:43.713Z,73.52
2019-04-27T09:04:11.287Z,73.04
2019-04-27T09:06:40.193Z,73.10
2019-04-27T09:09:12.350Z,71.92
2019-04-27T09:11:53.622Z,71.59
2019-04-27T09:14:29.510Z,71.02
2019-04-27T09:17:15.779Z,69.42
2019-04-27T09:20:05.033Z,67.82
2019-04-27T09:22:31.857Z,67.96
2019-04-27T09:25:01.454Z,67.78
2019-04-27T09:27:29.006Z,68.19
2019-04-27T09:29:55.915Z,67.66
2019-04-27T09:32:22.457Z,68.98
2019-04-27T09:34:49.076Z,69.32
2019-04-27T09:37:16.251Z,68.31
2019-04-27T09:39:45.880Z,69.13
2019-04-27T09:42:12.810Z,68.21
2019-04-27T09:44:39.459Z,67.79
2019-04-27T09:47:06.361Z,68.04
2019-04-27T09:49:33.401Z,68.17
2019-04-27T09:52:00.680Z,66.31
2019-04-27T09:54:27.366Z,66.52
2019-04-27T09:56:56.007Z,66.93
2019-04-27T09:59:22.837Z,65.68
2019-04-27T10:01:49.471Z,65.96
2019-04-27T10:04:17.476Z,64.42
2019-04-27T10:06:44.255Z,64.90
2019-04-27T10:09:10.978Z,64.62
2019-04-27T10:11:37.668Z,63.47
2019-04-27T10:14:05.924Z,62.82
2019-04-27T10:16:33.007Z,63.14
2019-04-27T10:18:59.549Z,64.15
2019-04-27T10:21:26.460Z,63.16
2019-04-27T10:23:53.235Z,63.14
2019-04-27T10:26:19.921Z,63.53
2019-04-27T10:28:46.473Z,63.08
2019-04-27T10:31:13.217Z,63.21
2019-04-27T10:33:39.893Z,63.18
2019-04-27T10:36:07.891Z,62.72
2019-04-27T10:38:35.977Z,62.69
2019-04-27T10:41:02.800Z,62.80
2019-04-27T10:43:29.432Z,62.31
2019-04-27T10:45:56.665Z,62.37
2019-04-27T10:48:23.363Z,63.21
2019-04-27T10:50:50.028Z,62.49
2019-04-27T10:53:16.996Z,62.49
2019-04-27T10:55:47.161Z,59.65
2019-04-27T10:58:14.721Z,59.85
2019-04-27T11:00:47.179Z,58.45
2019-04-27T11:03:16.758Z,56.70
2019-04-27T11:06:06.415Z,53.37
2019-04-27T11:08:33.233Z,53.13
2019-04-27T11:11:00.103Z,52.14
2019-04-27T11:13:26.639Z,53.57
2019-04-27T11:15:59.612Z,50.74
2019-04-27T11:18:26.577Z,50.30
2019-04-27T11:20:53.120Z,49.21
2019-04-27T11:23:19.806Z,49.60
2019-04-27T11:25:47.118Z,48.05
2019-04-27T11:28:15.561Z,48.23
2019-04-27T11:30:42.374Z,49.64
2019-04-27T11:33:09.129Z,47.71
2019-04-27T11:35:48.140Z,47.24
2019-04-27T11:38:16.615Z,46.98
2019-04-27T11:40:43.491Z,48.17
2019-04-27T11:43:10.516Z,49.09
2019-04-27T11:45:37.169Z,49.65
2019-04-27T11:48:05.678Z,49.14
2019-04-27T11:50:32.476Z,47.83
2019-04-27T11:52:59.234Z,46.66
2019-04-27T11:55:27.848Z,47.59
2019-04-27T11:57:55.977Z,47.54
2019-04-27T12:00:25.387Z,47.11
2019-04-27T12:02:52.037Z,48.25
2019-04-27T12:05:18.830Z,47.68
2019-04-27T12:07:47.460Z,47.42
2019-04-27T12:10:15.854Z,48.55
2019-04-27T12:12:42.868Z,46.69
2019-04-27T12:15:09.807Z,46.83
2019-04-27T12:17:36.800Z,46.23
2019-04-27T12:20:04.424Z,47.00
2019-04-27T12:22:31.179Z,46.69
2019-04-27T12:24:58.071Z,45.08
2019-04-27T12:27:53.344Z,45.52
2019-04-27T12:30:27.600Z,45.88
2019-04-27T12:32:55.932Z,45.95
2019-04-27T12:35:23.043Z,45.73
2019-04-27T12:37:50.702Z,46.80
2019-04-27T12:40:17.582Z,45.69
2019-04-27T12:42:44.293Z,46.63
2019-04-27T12:45:10.937Z,46.64
2019-04-27T12:47:37.644Z,47.28
2019-04-27T12:50:06.171Z,47.24
2019-04-27T12:52:32.912Z,47.95
2019-04-27T12:55:16.839Z,52.74
2019-04-27T12:57:55.167Z,53.90
2019-04-27T13:00:42.365Z,55.11
2019-04-27T13:03:08.952Z,57.19
2019-04-27T13:05:35.955Z,57.29
2019-04-27T13:08:02.561Z,61.14
2019-04-27T13:10:29.484Z,60.26
2019-04-27T13:12:56.284Z,58.96
2019-04-27T13:15:26.511Z,56.47
2019-04-27T13:17:55.585Z,55.28
2019-04-27T13:20:22.755Z,55.15
2019-04-27T13:22:49.460Z,53.53
2019-04-27T13:25:16.366Z,52.96
2019-04-27T13:27:48.721Z,52.58
2019-04-27T13:30:17.406Z,52.71
2019-04-27T13:32:43.930Z,54.44
2019-04-27T13:35:10.823Z,53.06
2019-04-27T13:37:39.845Z,53.41
2019-04-27T13:40:09.693Z,54.07
2019-04-27T13:42:42.188Z,51.96
2019-04-27T13:45:14.177Z,51.76
2019-04-27T13:47:50.671Z,50.72
2019-04-27T13:50:33.563Z,49.63
2019-04-27T13:53:00.144Z,49.38
2019-04-27T13:55:26.704Z,49.84
2019-04-27T13:57:53.460Z,49.10
2019-04-27T14:00:20.544Z,47.56
2019-04-27T14:02:47.078Z,47.72
2019-04-27T14:05:14.053Z,46.07
2019-04-27T14:07:40.849Z,46.69
2019-04-27T14:10:09.316Z,45.32
2019-04-27T14:12:35.988Z,45.67
2019-04-27T14:15:03.107Z,44.77
2019-04-27T14:17:29.903Z,44.96
2019-04-27T14:19:56.565Z,44.64
2019-04-27T14:22:23.277Z,44.86
2019-04-27T14:24:49.800Z,45.32
2019-04-27T14:27:17.818Z,46.36
2019-04-27T14:29:45.332Z,47.36
2019-04-27T14:32:12.068Z,48.03
2019-04-27T14:34:38.940Z,47.28
2019-04-27T14:37:05.582Z,48.77
2019-04-27T14:39:32.220Z,51.14
2019-04-27T14:41:59.270Z,55.48
2019-04-27T14:44:25.916Z,57.73
2019-04-27T14:46:52.640Z,59.20
2019-04-27T14:49:19.861Z,58.92
2019-04-27T14:51:48.256Z,58.66
2019-04-27T14:54:15.159Z,59.61
2019-04-27T14:56:42.433Z,57.41
2019-04-27T14:59:09.156Z,56.63
2019-04-27T15:01:37.663Z,55.13
2019-04-27T15:04:04.406Z,52.65
2019-04-27T15:06:31.341Z,49.16
2019-04-27T15:08:58.210Z,46.90
2019-04-27T15:11:25.339Z,43.64
2019-04-27T15:13:53.325Z,45.28
2019-04-27T15:16:20.603Z,44.16
2019-04-27T15:18:52.180Z,44.51
2019-04-27T15:21:20.256Z,44.90
2019-04-27T15:23:48.381Z,44.36
2019-04-27T15:26:19.575Z,44.99
2019-04-27T15:28:49.318Z,44.80
2019-04-27T15:31:26.686Z,45.03
2019-04-27T15:34:11.014Z,45.82
2019-04-27T15:36:58.371Z,46.20
2019-04-27T15:39:48.568Z,46.00
2019-04-27T15:42:22.383Z,45.68
2019-04-27T15:44:50.080Z,44.89
2019-04-27T15:47:17.778Z,46.36
2019-04-27T15:49:53.093Z,46.46
2019-04-27T15:52:14.179Z,46.64
2019-04-27T15:54:40.837Z,46.67
2019-04-27T15:57:10.553Z,46.11
2019-04-27T15:59:37.742Z,46.47
2019-04-27T16:02:05.467Z,46.98
2019-04-27T16:04:34.597Z,47.51
2019-04-27T16:07:01.595Z,47.62
2019-04-27T16:09:28.419Z,47.70
2019-04-27T16:12:06.746Z,48.05
2019-04-27T16:14:23.917Z,47.97
2019-04-27T16:16:51.172Z,48.41
2019-04-27T16:19:18.479Z,48.73
2019-04-27T16:21:47.772Z,48.76
2019-04-27T16:24:17.033Z,47.99
2019-04-27T16:26:46.471Z,48.21
2019-04-27T16:29:10.987Z,48.10
2019-04-27T16:31:38.493Z,48.04
2019-04-27T16:34:05.230Z,48.52
2019-04-27T16:36:31.862Z,48.84
2019-04-27T16:39:03.632Z,48.79
2019-04-27T16:41:28.708Z,48.78
2019-04-27T16:43:55.439Z,48.04
2019-04-27T16:46:22.139Z,48.57
2019-04-27T16:48:48.802Z,48.54
2019-04-27T16:51:15.546Z,48.17
2019-04-27T16:53:42.340Z,49.19
2019-04-27T16:56:14.716Z,46.81
2019-04-27T16:58:39.390Z,47.22
2019-04-27T17:01:10.537Z,46.36
2019-04-27T17:03:36.621Z,47.20
2019-04-27T17:06:04.055Z,46.35
2019-04-27T17:08:31.906Z,46.61
2019-04-27T17:11:07.847Z,47.70
2019-04-27T17:13:28.007Z,46.89
2019-04-27T17:16:14.856Z,47.02
2019-04-27T17:18:52.879Z,47.49
2019-04-27T17:21:23.168Z,47.60
2019-04-27T17:23:48.241Z,48.56
2019-04-27T17:26:21.814Z,47.83
2019-04-27T17:28:51.556Z,47.84
2019-04-27T17:31:21.464Z,47.96
2019-04-27T17:33:52.811Z,48.37
2019-04-27T17:36:19.861Z,48.45
2019-04-27T17:38:50.841Z,48.55
2019-04-27T17:41:15.203Z,48.91
2019-04-27T17:43:42.649Z,49.28
2019-04-27T17:46:11.633Z,49.65
2019-04-27T17:48:38.279Z,49.62
2019-04-27T17:51:05.107Z,49.85
2019-04-27T17:53:33.191Z,50.34
2019-04-27T17:56:05.631Z,50.52
2019-04-27T17:58:29.167Z,50.69
2019-04-27T18:00:55.887Z,50.72
2019-04-27T18:03:22.626Z,51.23
2019-04-27T18:05:51.930Z,51.18
2019-04-27T18:08:24.543Z,51.59
2019-04-27T18:10:47.476Z,51.68
2019-04-27T18:13:14.017Z,51.85
2019-04-27T18:15:40.652Z,52.14
2019-04-27T18:18:22.821Z,53.20
2019-04-27T18:20:49.001Z,53.21
2019-04-27T18:23:18.752Z,52.32
2019-04-27T18:25:51.758Z,55.58
2019-04-27T18:28:22.046Z,57.07
2019-04-27T18:31:06.749Z,59.75
2019-04-27T18:33:37.088Z,60.65
2019-04-27T18:36:05.591Z,62.17
2019-04-27T18:38:35.023Z,64.08
2019-04-27T18:41:03.013Z,63.90
2019-04-27T18:43:28.630Z,63.67
2019-04-27T18:45:55.389Z,66.12
2019-04-27T18:48:29.293Z,67.32
2019-04-27T18:51:20.634Z,67.99
2019-04-27T18:53:48.028Z,67.41
2019-04-27T18:56:16.411Z,67.51
2019-04-27T18:58:43.343Z,66.20
2019-04-27T19:01:09.994Z,66.21
2019-04-27T19:03:36.683Z,68.31
2019-04-27T19:06:04.147Z,67.22
2019-04-27T19:08:30.922Z,68.04
2019-04-27T19:11:00.079Z,68.48
2019-04-27T19:13:26.549Z,68.13
2019-04-27T19:15:53.167Z,69.28
2019-04-27T19:18:19.709Z,70.00
2019-04-27T19:20:48.088Z,68.49
2019-04-27T19:23:14.923Z,70.41
2019-04-27T19:25:48.341Z,71.20
2019-04-27T19:28:48.294Z,71.28
2019-04-27T19:31:21.308Z,71.46
2019-04-27T19:33:48.232Z,71.50
2019-04-27T19:36:14.902Z,71.37
2019-04-27T19:38:41.976Z,70.15
2019-04-27T19:41:09.944Z,70.03
2019-04-27T19:43:38.378Z,68.85
2019-04-27T19:46:05.167Z,70.88
2019-04-27T19:48:34.867Z,71.52
2019-04-27T19:51:01.967Z,71.98
2019-04-27T19:53:28.693Z,70.98
2019-04-27T19:56:01.286Z,70.58
2019-04-27T19:58:29.330Z,70.08
2019-04-27T20:01:11.152Z,70.40
2019-04-27T20:03:35.475Z,71.50
2019-04-27T20:06:02.146Z,69.98
2019-04-27T20:08:31.059Z,70.82
2019-04-27T20:10:57.704Z,71.19
2019-04-27T20:13:24.379Z,72.57
2019-04-27T20:15:51.290Z,70.82
2019-04-27T20:18:18.048Z,69.03
2019-04-27T20:23:24.887Z,70.00
2019-04-27T20:25:51.595Z,73.68
2019-04-27T20:28:18.732Z,70.45
2019-04-27T20:30:45.663Z,71.54
2019-04-27T20:33:12.660Z,72.78
2019-04-27T20:35:40.788Z,69.15
2019-04-27T20:38:10.879Z,70.42
2019-04-27T20:40:37.494Z,71.83
2019-04-27T20:43:04.383Z,72.14
2019-04-27T20:45:32.717Z,72.65
2019-04-27T20:48:01.121Z,72.17
2019-04-27T20:50:27.876Z,70.67
2019-04-27T20:52:56.123Z,70.71
2019-04-27T20:55:22.862Z,72.65
2019-04-27T20:57:59.726Z,71.32
2019-04-27T21:00:21.924Z,71.74
2019-04-27T21:03:11.995Z,73.24
2019-04-27T21:05:46.603Z,73.43
2019-04-27T21:08:13.322Z,72.90
2019-04-27T21:10:41.270Z,72.41
2019-04-27T21:13:08.526Z,72.17
2019-04-27T21:15:35.234Z,72.83
2019-04-27T21:18:02.025Z,73.48
2019-04-27T21:20:28.715Z,73.44
2019-04-27T21:22:55.425Z,72.38
2019-04-27T21:25:22.232Z,73.73
2019-04-27T21:27:48.969Z,74.17
2019-04-27T21:30:15.940Z,73.40
2019-04-27T21:32:42.913Z,72.32
2019-04-27T21:35:10.928Z,72.95
2019-04-27T21:37:37.758Z,73.67
2019-04-27T21:40:16.385Z,73.92
2019-04-27T21:42:43.066Z,73.11
2019-04-27T21:45:11.257Z,74.09
2019-04-27T21:47:37.999Z,72.82
2019-04-27T21:50:04.886Z,72.48
2019-04-27T21:52:33.587Z,72.91
2019-04-27T21:55:01.457Z,72.18
2019-04-27T21:57:28.340Z,72.92
2019-04-27T21:59:55.447Z,73.00
2019-04-27T22:02:22.242Z,72.54
2019-04-27T22:04:48.901Z,72.12
2019-04-27T22:07:15.572Z,72.09
2019-04-27T22:09:43.307Z,72.37
2019-04-27T22:12:11.223Z,72.78
2019-04-27T22:14:38.043Z,73.21
2019-04-27T22:17:04.779Z,73.33
2019-04-27T22:19:31.594Z,74.02
2019-04-27T22:22:00.495Z,73.33
2019-04-27T22:24:31.157Z,73.82
2019-04-27T22:26:57.917Z,73.49
2019-04-27T22:29:24.667Z,73.90
2019-04-27T22:31:51.732Z,73.96
2019-04-27T22:34:18.835Z,73.99
2019-04-27T22:36:45.473Z,73.38
2019-04-27T22:39:33.788Z,73.33
2019-04-27T22:42:23.811Z,73.59
2019-04-27T22:44:54.204Z,73.90
2019-04-27T22:47:21.522Z,75.06
2019-04-27T22:49:48.463Z,74.50
2019-04-27T22:52:15.211Z,74.30
2019-04-27T22:54:42.188Z,74.62
2019-04-27T22:57:16.817Z,74.04
2019-04-27T22:59:57.019Z,74.36
2019-04-27T23:02:32.732Z,74.67
2019-04-27T23:05:01.953Z,74.64
2019-04-27T23:07:28.969Z,74.57
2019-04-27T23:09:55.628Z,73.75
2019-04-27T23:12:23.051Z,73.78
2019-04-27T23:14:50.296Z,72.93
2019-04-27T23:17:46.779Z,73.34
2019-04-27T23:20:13.432Z,74.40
2019-04-27T23:22:40.143Z,73.31
2019-04-27T23:25:07.191Z,73.43
2019-04-27T23:27:34.063Z,73.69
2019-04-27T23:30:01.388Z,74.68
2019-04-27T23:32:34.921Z,73.28
2019-04-27T23:35:01.570Z,74.11
2019-04-27T23:37:28.272Z,73.11
2019-04-27T23:39:54.907Z,73.42
2019-04-27T23:42:21.740Z,73.98
2019-04-27T23:44:48.375Z,75.44
2019-04-27T23:47:15.281Z,75.35
2019-04-27T23:49:41.813Z,75.21
2019-04-27T23:52:13.826Z,73.81
2019-04-27T23:54:42.698Z,75.35
2019-04-27T23:57:09.065Z,74.48
2019-04-27T23:59:35.701Z,75.42
